sensor_id;sensor_type;location;lat;lon;timestamp;temperature;humidity
6792;DHT22;3433;48.730;9.108;2022-09-09T00:00:33;16.10;97.10
6792;DHT22;3433;48.730;9.108;2022-09-09T00:03:26;16.10;97.80
6792;DHT22;3433;48.730;9.108;2022-09-09T00:06:22;16.10;97.20
6792;DHT22;3433;48.730;9.108;2022-09-09T00:09:12;16.10;97.20
6792;DHT22;3433;48.730;9.108;2022-09-09T00:12:03;16.10;97.10
6792;DHT22;3433;48.730;9.108;2022-09-09T00:14:54;16.10;97.30
6792;DHT22;3433;48.730;9.108;2022-09-09T00:17:46;16.10;97.60
6792;DHT22;3433;48.730;9.108;2022-09-09T00:20:38;16.10;97.30
6792;DHT22;3433;48.730;9.108;2022-09-09T00:23:31;16.10;97.80
6792;DHT22;3433;48.730;9.108;2022-09-09T00:26:24;16.20;97.90
6792;DHT22;3433;48.730;9.108;2022-09-09T00:29:22;16.20;97.80
6792;DHT22;3433;48.730;9.108;2022-09-09T00:32:15;16.30;97.80
6792;DHT22;3433;48.730;9.108;2022-09-09T00:35:11;16.40;97.70
6792;DHT22;3433;48.730;9.108;2022-09-09T00:38:05;16.50;97.70
6792;DHT22;3433;48.730;9.108;2022-09-09T00:41:03;16.50;97.80
6792;DHT22;3433;48.730;9.108;2022-09-09T00:43:57;16.60;97.70
6792;DHT22;3433;48.730;9.108;2022-09-09T00:46:56;16.70;97.70
6792;DHT22;3433;48.730;9.108;2022-09-09T00:49:54;16.70;97.70
6792;DHT22;3433;48.730;9.108;2022-09-09T00:52:54;16.80;97.60
6792;DHT22;3433;48.730;9.108;2022-09-09T00:55:47;16.80;97.50
6792;DHT22;3433;48.730;9.108;2022-09-09T00:58:37;16.90;97.50
6792;DHT22;3433;48.730;9.108;2022-09-09T01:01:24;17.00;97.40
6792;DHT22;3433;48.730;9.108;2022-09-09T01:04:14;17.10;97.40
6792;DHT22;3433;48.730;9.108;2022-09-09T01:07:09;17.10;97.30
6792;DHT22;3433;48.730;9.108;2022-09-09T01:10:05;17.10;97.30
6792;DHT22;3433;48.730;9.108;2022-09-09T01:12:56;17.20;97.20
6792;DHT22;3433;48.730;9.108;2022-09-09T01:15:48;17.30;97.30
6792;DHT22;3433;48.730;9.108;2022-09-09T01:18:43;17.30;97.20
6792;DHT22;3433;48.730;9.108;2022-09-09T01:21:38;17.30;97.10
6792;DHT22;3433;48.730;9.108;2022-09-09T01:24:36;17.30;97.20
6792;DHT22;3433;48.730;9.108;2022-09-09T01:27:27;17.30;97.20
6792;DHT22;3433;48.730;9.108;2022-09-09T01:30:17;17.20;97.20
6792;DHT22;3433;48.730;9.108;2022-09-09T01:33:07;17.20;97.30
6792;DHT22;3433;48.730;9.108;2022-09-09T01:36:00;17.20;97.20
6792;DHT22;3433;48.730;9.108;2022-09-09T01:38:49;17.30;97.20
6792;DHT22;3433;48.730;9.108;2022-09-09T01:41:37;17.30;97.10
6792;DHT22;3433;48.730;9.108;2022-09-09T01:44:26;17.30;97.20
6792;DHT22;3433;48.730;9.108;2022-09-09T01:47:15;17.20;97.50
6792;DHT22;3433;48.730;9.108;2022-09-09T01:50:04;17.30;97.20
6792;DHT22;3433;48.730;9.108;2022-09-09T01:52:54;17.30;97.10
6792;DHT22;3433;48.730;9.108;2022-09-09T01:55:48;17.40;97.10
6792;DHT22;3433;48.730;9.108;2022-09-09T01:58:46;17.40;97.10
6792;DHT22;3433;48.730;9.108;2022-09-09T02:01:51;17.30;97.10
6792;DHT22;3433;48.730;9.108;2022-09-09T02:04:42;17.40;97.00
6792;DHT22;3433;48.730;9.108;2022-09-09T02:07:38;17.40;97.00
6792;DHT22;3433;48.730;9.108;2022-09-09T02:10:32;17.40;97.10
6792;DHT22;3433;48.730;9.108;2022-09-09T02:13:21;17.40;97.00
6792;DHT22;3433;48.730;9.108;2022-09-09T02:16:12;17.40;97.10
6792;DHT22;3433;48.730;9.108;2022-09-09T02:19:07;17.40;97.10
6792;DHT22;3433;48.730;9.108;2022-09-09T02:21:57;17.30;97.10
6792;DHT22;3433;48.730;9.108;2022-09-09T02:24:47;17.30;97.00
6792;DHT22;3433;48.730;9.108;2022-09-09T02:27:36;17.30;97.00
6792;DHT22;3433;48.730;9.108;2022-09-09T02:30:23;17.30;97.00
6792;DHT22;3433;48.730;9.108;2022-09-09T02:33:12;17.30;97.20
6792;DHT22;3433;48.730;9.108;2022-09-09T02:36:03;17.30;97.10
6792;DHT22;3433;48.730;9.108;2022-09-09T02:38:52;17.30;97.20
6792;DHT22;3433;48.730;9.108;2022-09-09T02:41:41;17.20;97.00
6792;DHT22;3433;48.730;9.108;2022-09-09T02:44:29;17.20;97.10
6792;DHT22;3433;48.730;9.108;2022-09-09T02:47:30;17.20;97.30
6792;DHT22;3433;48.730;9.108;2022-09-09T02:50:25;17.10;97.20
6792;DHT22;3433;48.730;9.108;2022-09-09T02:53:17;17.10;97.40
6792;DHT22;3433;48.730;9.108;2022-09-09T02:56:09;17.00;97.50
6792;DHT22;3433;48.730;9.108;2022-09-09T02:59:02;16.90;97.80
6792;DHT22;3433;48.730;9.108;2022-09-09T03:01:49;16.90;97.70
6792;DHT22;3433;48.730;9.108;2022-09-09T03:04:37;17.00;97.60
6792;DHT22;3433;48.730;9.108;2022-09-09T03:07:25;17.00;97.40
6792;DHT22;3433;48.730;9.108;2022-09-09T03:10:14;16.90;97.50
6792;DHT22;3433;48.730;9.108;2022-09-09T03:13:02;17.00;98.00
6792;DHT22;3433;48.730;9.108;2022-09-09T03:15:50;17.00;97.80
6792;DHT22;3433;48.730;9.108;2022-09-09T03:18:37;16.90;97.90
6792;DHT22;3433;48.730;9.108;2022-09-09T03:21:25;17.00;97.90
6792;DHT22;3433;48.730;9.108;2022-09-09T03:24:12;16.90;97.80
6792;DHT22;3433;48.730;9.108;2022-09-09T03:27:01;16.90;98.30
6792;DHT22;3433;48.730;9.108;2022-09-09T03:29:48;16.80;98.30
6792;DHT22;3433;48.730;9.108;2022-09-09T03:32:36;16.90;98.30
6792;DHT22;3433;48.730;9.108;2022-09-09T03:35:24;16.80;98.10
6792;DHT22;3433;48.730;9.108;2022-09-09T03:38:11;16.90;98.20
6792;DHT22;3433;48.730;9.108;2022-09-09T03:40:59;16.90;98.20
6792;DHT22;3433;48.730;9.108;2022-09-09T03:43:49;16.80;98.10
6792;DHT22;3433;48.730;9.108;2022-09-09T03:46:36;16.90;97.90
6792;DHT22;3433;48.730;9.108;2022-09-09T03:49:24;16.90;98.10
6792;DHT22;3433;48.730;9.108;2022-09-09T03:52:13;16.90;98.20
6792;DHT22;3433;48.730;9.108;2022-09-09T03:55:00;17.00;98.00
6792;DHT22;3433;48.730;9.108;2022-09-09T03:57:48;16.90;98.30
6792;DHT22;3433;48.730;9.108;2022-09-09T04:00:37;16.90;98.50
6792;DHT22;3433;48.730;9.108;2022-09-09T04:03:31;16.90;98.50
6792;DHT22;3433;48.730;9.108;2022-09-09T04:06:19;16.90;98.30
6792;DHT22;3433;48.730;9.108;2022-09-09T04:09:07;16.90;98.60
6792;DHT22;3433;48.730;9.108;2022-09-09T04:11:54;16.90;98.20
6792;DHT22;3433;48.730;9.108;2022-09-09T04:14:42;17.00;98.30
6792;DHT22;3433;48.730;9.108;2022-09-09T04:17:31;16.90;98.60
6792;DHT22;3433;48.730;9.108;2022-09-09T04:20:19;16.90;98.60
6792;DHT22;3433;48.730;9.108;2022-09-09T04:23:08;16.80;98.60
6792;DHT22;3433;48.730;9.108;2022-09-09T04:25:56;16.90;98.60
6792;DHT22;3433;48.730;9.108;2022-09-09T04:28:43;16.80;98.70
6792;DHT22;3433;48.730;9.108;2022-09-09T04:31:31;16.80;98.90
6792;DHT22;3433;48.730;9.108;2022-09-09T04:34:20;16.70;98.60
6792;DHT22;3433;48.730;9.108;2022-09-09T04:37:08;16.60;98.80
6792;DHT22;3433;48.730;9.108;2022-09-09T04:39:55;16.50;99.10
6792;DHT22;3433;48.730;9.108;2022-09-09T04:42:43;16.50;99.50
6792;DHT22;3433;48.730;9.108;2022-09-09T04:45:30;16.50;99.90
6792;DHT22;3433;48.730;9.108;2022-09-09T04:48:19;16.50;99.90
6792;DHT22;3433;48.730;9.108;2022-09-09T04:51:11;16.60;99.90
6792;DHT22;3433;48.730;9.108;2022-09-09T04:53:59;16.40;99.90
6792;DHT22;3433;48.730;9.108;2022-09-09T04:56:50;16.40;99.90
6792;DHT22;3433;48.730;9.108;2022-09-09T04:59:38;16.30;99.90
6792;DHT22;3433;48.730;9.108;2022-09-09T05:02:26;16.30;99.90
6792;DHT22;3433;48.730;9.108;2022-09-09T05:05:14;16.30;99.90
6792;DHT22;3433;48.730;9.108;2022-09-09T05:08:04;16.20;99.90
6792;DHT22;3433;48.730;9.108;2022-09-09T05:10:51;16.20;99.90
6792;DHT22;3433;48.730;9.108;2022-09-09T05:13:39;16.20;99.90
6792;DHT22;3433;48.730;9.108;2022-09-09T05:16:26;16.20;99.90
6792;DHT22;3433;48.730;9.108;2022-09-09T05:19:14;16.20;99.90
6792;DHT22;3433;48.730;9.108;2022-09-09T05:22:01;16.20;99.90
6792;DHT22;3433;48.730;9.108;2022-09-09T05:24:50;16.20;99.90
6792;DHT22;3433;48.730;9.108;2022-09-09T05:27:37;16.20;99.90
6792;DHT22;3433;48.730;9.108;2022-09-09T05:30:25;16.20;99.90
6792;DHT22;3433;48.730;9.108;2022-09-09T05:33:12;16.30;99.90
6792;DHT22;3433;48.730;9.108;2022-09-09T05:36:02;16.30;99.90
6792;DHT22;3433;48.730;9.108;2022-09-09T05:38:50;16.30;99.90
6792;DHT22;3433;48.730;9.108;2022-09-09T05:41:41;16.40;99.90
6792;DHT22;3433;48.730;9.108;2022-09-09T05:44:28;16.50;99.90
6792;DHT22;3433;48.730;9.108;2022-09-09T05:47:15;16.50;99.90
6792;DHT22;3433;48.730;9.108;2022-09-09T05:50:03;16.60;99.90
6792;DHT22;3433;48.730;9.108;2022-09-09T05:52:56;16.60;99.90
6792;DHT22;3433;48.730;9.108;2022-09-09T05:55:47;16.70;99.90
6792;DHT22;3433;48.730;9.108;2022-09-09T05:58:36;16.70;99.90
6792;DHT22;3433;48.730;9.108;2022-09-09T06:01:26;16.80;99.90
6792;DHT22;3433;48.730;9.108;2022-09-09T06:04:21;16.70;99.90
6792;DHT22;3433;48.730;9.108;2022-09-09T06:07:10;16.80;99.90
6792;DHT22;3433;48.730;9.108;2022-09-09T06:09:59;16.90;99.90
6792;DHT22;3433;48.730;9.108;2022-09-09T06:12:46;16.80;99.90
6792;DHT22;3433;48.730;9.108;2022-09-09T06:15:35;16.80;99.90
6792;DHT22;3433;48.730;9.108;2022-09-09T06:18:23;16.90;99.90
6792;DHT22;3433;48.730;9.108;2022-09-09T06:21:15;16.90;99.90
6792;DHT22;3433;48.730;9.108;2022-09-09T06:24:04;16.90;99.90
6792;DHT22;3433;48.730;9.108;2022-09-09T06:26:53;16.90;99.90
6792;DHT22;3433;48.730;9.108;2022-09-09T06:29:40;17.00;99.90
6792;DHT22;3433;48.730;9.108;2022-09-09T06:32:29;16.90;99.90
6792;DHT22;3433;48.730;9.108;2022-09-09T06:35:19;16.90;99.90
6792;DHT22;3433;48.730;9.108;2022-09-09T06:38:06;16.90;99.90
6792;DHT22;3433;48.730;9.108;2022-09-09T06:40:55;17.00;99.90
6792;DHT22;3433;48.730;9.108;2022-09-09T06:43:44;17.10;99.90
6792;DHT22;3433;48.730;9.108;2022-09-09T06:46:32;17.20;99.90
6792;DHT22;3433;48.730;9.108;2022-09-09T06:49:21;17.20;99.90
6792;DHT22;3433;48.730;9.108;2022-09-09T06:52:09;17.20;99.90
6792;DHT22;3433;48.730;9.108;2022-09-09T06:54:56;17.20;99.90
6792;DHT22;3433;48.730;9.108;2022-09-09T06:57:46;17.30;99.90
6792;DHT22;3433;48.730;9.108;2022-09-09T07:00:34;17.40;99.90
6792;DHT22;3433;48.730;9.108;2022-09-09T07:03:23;17.40;99.90
6792;DHT22;3433;48.730;9.108;2022-09-09T07:06:15;17.50;99.90
6792;DHT22;3433;48.730;9.108;2022-09-09T07:09:06;17.60;99.90
6792;DHT22;3433;48.730;9.108;2022-09-09T07:11:54;17.70;99.90
6792;DHT22;3433;48.730;9.108;2022-09-09T07:14:45;17.80;99.90
6792;DHT22;3433;48.730;9.108;2022-09-09T07:17:32;17.90;99.90
6792;DHT22;3433;48.730;9.108;2022-09-09T07:20:20;17.90;99.90
6792;DHT22;3433;48.730;9.108;2022-09-09T07:23:09;18.00;99.90
6792;DHT22;3433;48.730;9.108;2022-09-09T07:25:57;18.00;99.90
6792;DHT22;3433;48.730;9.108;2022-09-09T07:28:45;18.10;99.90
6792;DHT22;3433;48.730;9.108;2022-09-09T07:31:34;18.10;99.90
6792;DHT22;3433;48.730;9.108;2022-09-09T07:34:22;18.20;99.90
6792;DHT22;3433;48.730;9.108;2022-09-09T07:37:09;18.20;99.90
6792;DHT22;3433;48.730;9.108;2022-09-09T07:40:00;18.60;99.90
6792;DHT22;3433;48.730;9.108;2022-09-09T07:42:49;18.70;99.90
6792;DHT22;3433;48.730;9.108;2022-09-09T07:45:37;18.80;99.90
6792;DHT22;3433;48.730;9.108;2022-09-09T07:48:26;19.10;99.90
6792;DHT22;3433;48.730;9.108;2022-09-09T07:51:18;19.10;99.90
6792;DHT22;3433;48.730;9.108;2022-09-09T07:54:09;19.10;99.90
6792;DHT22;3433;48.730;9.108;2022-09-09T07:56:58;19.20;99.90
6792;DHT22;3433;48.730;9.108;2022-09-09T07:59:45;19.50;99.90
6792;DHT22;3433;48.730;9.108;2022-09-09T08:02:33;19.60;99.40
6792;DHT22;3433;48.730;9.108;2022-09-09T08:05:22;19.70;99.30
6792;DHT22;3433;48.730;9.108;2022-09-09T08:08:10;19.70;99.20
6792;DHT22;3433;48.730;9.108;2022-09-09T08:11:03;19.90;98.80
6792;DHT22;3433;48.730;9.108;2022-09-09T08:13:52;19.90;98.70
6792;DHT22;3433;48.730;9.108;2022-09-09T08:16:42;20.10;99.00
6792;DHT22;3433;48.730;9.108;2022-09-09T08:19:30;20.30;98.80
6792;DHT22;3433;48.730;9.108;2022-09-09T08:22:20;20.40;98.20
6792;DHT22;3433;48.730;9.108;2022-09-09T08:25:08;20.60;98.50
6792;DHT22;3433;48.730;9.108;2022-09-09T08:27:56;20.80;98.20
6792;DHT22;3433;48.730;9.108;2022-09-09T08:30:44;21.10;98.30
6792;DHT22;3433;48.730;9.108;2022-09-09T08:33:33;21.30;98.20
6792;DHT22;3433;48.730;9.108;2022-09-09T08:36:24;21.60;97.60
6792;DHT22;3433;48.730;9.108;2022-09-09T08:39:13;21.60;97.60
6792;DHT22;3433;48.730;9.108;2022-09-09T08:45:33;22.00;97.20
6792;DHT22;3433;48.730;9.108;2022-09-09T08:48:36;22.10;96.60
6792;DHT22;3433;48.730;9.108;2022-09-09T08:51:29;22.20;95.60
6792;DHT22;3433;48.730;9.108;2022-09-09T08:54:19;22.30;96.10
6792;DHT22;3433;48.730;9.108;2022-09-09T08:57:11;22.50;95.50
6792;DHT22;3433;48.730;9.108;2022-09-09T09:00:02;22.60;94.20
6792;DHT22;3433;48.730;9.108;2022-09-09T09:02:58;22.60;94.40
6792;DHT22;3433;48.730;9.108;2022-09-09T09:05:58;22.10;94.00
6792;DHT22;3433;48.730;9.108;2022-09-09T09:08:56;22.10;94.70
6792;DHT22;3433;48.730;9.108;2022-09-09T09:11:48;22.00;95.40
6792;DHT22;3433;48.730;9.108;2022-09-09T09:14:37;21.80;95.90
6792;DHT22;3433;48.730;9.108;2022-09-09T09:17:28;21.40;97.00
6792;DHT22;3433;48.730;9.108;2022-09-09T09:20:21;21.00;97.70
6792;DHT22;3433;48.730;9.108;2022-09-09T09:23:17;20.60;97.60
6792;DHT22;3433;48.730;9.108;2022-09-09T09:26:10;20.30;96.50
6792;DHT22;3433;48.730;9.108;2022-09-09T09:28:59;20.20;97.20
6792;DHT22;3433;48.730;9.108;2022-09-09T09:31:51;19.80;97.70
6792;DHT22;3433;48.730;9.108;2022-09-09T09:34:40;19.40;97.50
6792;DHT22;3433;48.730;9.108;2022-09-09T09:37:30;19.50;97.80
6792;DHT22;3433;48.730;9.108;2022-09-09T09:40:22;19.90;98.70
6792;DHT22;3433;48.730;9.108;2022-09-09T09:43:20;20.20;98.80
6792;DHT22;3433;48.730;9.108;2022-09-09T09:46:20;20.30;98.60
6792;DHT22;3433;48.730;9.108;2022-09-09T09:49:10;20.60;97.80
6792;DHT22;3433;48.730;9.108;2022-09-09T09:52:01;20.90;98.20
6792;DHT22;3433;48.730;9.108;2022-09-09T09:54:48;21.20;98.20
6792;DHT22;3433;48.730;9.108;2022-09-09T09:57:37;21.50;97.60
6792;DHT22;3433;48.730;9.108;2022-09-09T10:00:25;21.70;96.80
6792;DHT22;3433;48.730;9.108;2022-09-09T10:03:22;21.80;96.80
6792;DHT22;3433;48.730;9.108;2022-09-09T10:06:11;22.00;96.80
6792;DHT22;3433;48.730;9.108;2022-09-09T10:08:59;22.40;97.10
6792;DHT22;3433;48.730;9.108;2022-09-09T10:11:55;22.50;96.00
6792;DHT22;3433;48.730;9.108;2022-09-09T10:14:49;22.60;96.20
6792;DHT22;3433;48.730;9.108;2022-09-09T10:17:51;23.00;96.50
6792;DHT22;3433;48.730;9.108;2022-09-09T10:20:48;23.20;95.40
6792;DHT22;3433;48.730;9.108;2022-09-09T10:23:49;23.60;96.10
6792;DHT22;3433;48.730;9.108;2022-09-09T10:26:46;23.70;95.30
6792;DHT22;3433;48.730;9.108;2022-09-09T10:29:53;23.90;95.00
6792;DHT22;3433;48.730;9.108;2022-09-09T10:32:48;23.70;95.20
6792;DHT22;3433;48.730;9.108;2022-09-09T10:35:43;23.60;94.50
6792;DHT22;3433;48.730;9.108;2022-09-09T10:38:39;23.40;94.80
6792;DHT22;3433;48.730;9.108;2022-09-09T10:41:44;22.90;95.00
6792;DHT22;3433;48.730;9.108;2022-09-09T10:44:50;22.70;95.40
6792;DHT22;3433;48.730;9.108;2022-09-09T10:50:12;22.60;95.50
6792;DHT22;3433;48.730;9.108;2022-09-09T10:51:38;22.60;95.90
6792;DHT22;3433;48.730;9.108;2022-09-09T10:54:36;23.30;95.60
6792;DHT22;3433;48.730;9.108;2022-09-09T10:57:29;23.20;95.40
6792;DHT22;3433;48.730;9.108;2022-09-09T11:00:20;23.00;95.50
6792;DHT22;3433;48.730;9.108;2022-09-09T11:03:15;23.00;94.70
6792;DHT22;3433;48.730;9.108;2022-09-09T11:06:06;23.00;94.80
6792;DHT22;3433;48.730;9.108;2022-09-09T11:08:58;23.00;94.30
6792;DHT22;3433;48.730;9.108;2022-09-09T11:11:52;23.00;94.00
6792;DHT22;3433;48.730;9.108;2022-09-09T11:14:43;22.80;93.30
6792;DHT22;3433;48.730;9.108;2022-09-09T11:17:38;22.90;93.30
6792;DHT22;3433;48.730;9.108;2022-09-09T11:20:29;22.70;91.80
6792;DHT22;3433;48.730;9.108;2022-09-09T11:23:22;22.30;91.80
6792;DHT22;3433;48.730;9.108;2022-09-09T11:26:15;22.10;91.30
6792;DHT22;3433;48.730;9.108;2022-09-09T11:35:53;21.60;91.40
6792;DHT22;3433;48.730;9.108;2022-09-09T11:38:45;21.50;92.00
6792;DHT22;3433;48.730;9.108;2022-09-09T11:41:35;21.40;92.10
6792;DHT22;3433;48.730;9.108;2022-09-09T11:44:28;21.40;92.40
6792;DHT22;3433;48.730;9.108;2022-09-09T11:47:20;21.30;92.40
6792;DHT22;3433;48.730;9.108;2022-09-09T11:50:26;21.40;92.30
6792;DHT22;3433;48.730;9.108;2022-09-09T11:53:22;21.30;91.60
6792;DHT22;3433;48.730;9.108;2022-09-09T11:56:11;21.40;91.80
6792;DHT22;3433;48.730;9.108;2022-09-09T11:59:02;21.50;91.80
6792;DHT22;3433;48.730;9.108;2022-09-09T12:01:54;21.60;92.00
6792;DHT22;3433;48.730;9.108;2022-09-09T12:04:46;21.70;92.20
6792;DHT22;3433;48.730;9.108;2022-09-09T12:07:40;22.00;92.20
6792;DHT22;3433;48.730;9.108;2022-09-09T12:10:33;22.20;92.10
6792;DHT22;3433;48.730;9.108;2022-09-09T12:13:23;22.30;91.50
6792;DHT22;3433;48.730;9.108;2022-09-09T12:16:30;22.80;91.80
6792;DHT22;3433;48.730;9.108;2022-09-09T12:19:20;22.80;89.70
6792;DHT22;3433;48.730;9.108;2022-09-09T12:22:20;23.20;90.60
6792;DHT22;3433;48.730;9.108;2022-09-09T12:25:20;23.60;88.70
6792;DHT22;3433;48.730;9.108;2022-09-09T12:28:15;23.40;87.30
6792;DHT22;3433;48.730;9.108;2022-09-09T12:31:08;23.60;87.50
6792;DHT22;3433;48.730;9.108;2022-09-09T12:34:06;24.00;85.80
6792;DHT22;3433;48.730;9.108;2022-09-09T12:37:03;24.00;84.40
6792;DHT22;3433;48.730;9.108;2022-09-09T12:39:55;24.10;86.80
6792;DHT22;3433;48.730;9.108;2022-09-09T12:42:42;24.10;87.80
6792;DHT22;3433;48.730;9.108;2022-09-09T12:45:33;23.70;87.20
6792;DHT22;3433;48.730;9.108;2022-09-09T12:48:22;23.30;87.30
6792;DHT22;3433;48.730;9.108;2022-09-09T12:51:19;23.40;88.00
6792;DHT22;3433;48.730;9.108;2022-09-09T12:54:13;23.30;89.30
6792;DHT22;3433;48.730;9.108;2022-09-09T12:57:01;23.50;88.70
6792;DHT22;3433;48.730;9.108;2022-09-09T12:59:49;23.30;87.20
6792;DHT22;3433;48.730;9.108;2022-09-09T13:02:51;23.40;86.70
6792;DHT22;3433;48.730;9.108;2022-09-09T13:05:39;23.60;89.00
6792;DHT22;3433;48.730;9.108;2022-09-09T13:08:26;23.50;86.80
6792;DHT22;3433;48.730;9.108;2022-09-09T13:11:16;23.30;87.80
6792;DHT22;3433;48.730;9.108;2022-09-09T13:14:04;23.40;86.60
6792;DHT22;3433;48.730;9.108;2022-09-09T13:16:57;24.20;86.30
6792;DHT22;3433;48.730;9.108;2022-09-09T13:19:46;24.70;84.70
6792;DHT22;3433;48.730;9.108;2022-09-09T13:22:37;25.20;85.60
6792;DHT22;3433;48.730;9.108;2022-09-09T13:25:28;25.10;81.50
6792;DHT22;3433;48.730;9.108;2022-09-09T13:28:20;24.80;78.90
6792;DHT22;3433;48.730;9.108;2022-09-09T13:31:21;24.60;79.60
6792;DHT22;3433;48.730;9.108;2022-09-09T13:34:11;24.70;80.30
6792;DHT22;3433;48.730;9.108;2022-09-09T13:37:03;24.40;79.70
6792;DHT22;3433;48.730;9.108;2022-09-09T13:39:52;24.00;79.50
6792;DHT22;3433;48.730;9.108;2022-09-09T13:42:41;23.70;81.20
6792;DHT22;3433;48.730;9.108;2022-09-09T13:45:29;24.10;82.00
6792;DHT22;3433;48.730;9.108;2022-09-09T13:48:18;24.70;81.60
6792;DHT22;3433;48.730;9.108;2022-09-09T13:51:24;24.60;81.00
6792;DHT22;3433;48.730;9.108;2022-09-09T13:54:16;24.30;80.00
6792;DHT22;3433;48.730;9.108;2022-09-09T13:57:03;24.10;78.60
6792;DHT22;3433;48.730;9.108;2022-09-09T13:59:52;24.20;78.70
6792;DHT22;3433;48.730;9.108;2022-09-09T14:02:40;24.50;79.50
6792;DHT22;3433;48.730;9.108;2022-09-09T14:05:31;24.80;80.00
6792;DHT22;3433;48.730;9.108;2022-09-09T14:08:25;24.50;78.70
6792;DHT22;3433;48.730;9.108;2022-09-09T14:11:16;24.50;78.40
6792;DHT22;3433;48.730;9.108;2022-09-09T14:14:04;24.70;78.80
6792;DHT22;3433;48.730;9.108;2022-09-09T14:16:51;24.80;78.90
6792;DHT22;3433;48.730;9.108;2022-09-09T14:19:39;25.00;78.60
6792;DHT22;3433;48.730;9.108;2022-09-09T14:22:26;24.70;77.50
6792;DHT22;3433;48.730;9.108;2022-09-09T14:25:14;24.80;76.20
6792;DHT22;3433;48.730;9.108;2022-09-09T14:28:03;24.70;76.30
6792;DHT22;3433;48.730;9.108;2022-09-09T14:30:50;24.80;75.80
6792;DHT22;3433;48.730;9.108;2022-09-09T14:33:38;24.60;75.20
6792;DHT22;3433;48.730;9.108;2022-09-09T14:36:25;24.10;75.60
6792;DHT22;3433;48.730;9.108;2022-09-09T14:39:12;24.10;77.20
6792;DHT22;3433;48.730;9.108;2022-09-09T14:42:00;24.30;77.00
6792;DHT22;3433;48.730;9.108;2022-09-09T14:44:49;24.30;77.20
6792;DHT22;3433;48.730;9.108;2022-09-09T14:47:37;24.20;75.90
6792;DHT22;3433;48.730;9.108;2022-09-09T14:50:24;24.50;75.20
6792;DHT22;3433;48.730;9.108;2022-09-09T14:53:12;24.20;74.50
6792;DHT22;3433;48.730;9.108;2022-09-09T14:56:04;24.50;75.00
6792;DHT22;3433;48.730;9.108;2022-09-09T14:58:53;24.50;76.50
6792;DHT22;3433;48.730;9.108;2022-09-09T15:01:42;24.40;75.00
6792;DHT22;3433;48.730;9.108;2022-09-09T15:04:30;24.40;74.80
6792;DHT22;3433;48.730;9.108;2022-09-09T15:07:17;24.20;74.40
6792;DHT22;3433;48.730;9.108;2022-09-09T15:10:06;23.90;75.40
6792;DHT22;3433;48.730;9.108;2022-09-09T15:12:53;23.80;76.60
6792;DHT22;3433;48.730;9.108;2022-09-09T15:15:40;23.50;76.10
6792;DHT22;3433;48.730;9.108;2022-09-09T15:18:31;23.40;77.50
6792;DHT22;3433;48.730;9.108;2022-09-09T15:21:20;23.60;78.20
6792;DHT22;3433;48.730;9.108;2022-09-09T15:24:08;23.60;76.80
6792;DHT22;3433;48.730;9.108;2022-09-09T15:26:56;23.70;76.40
6792;DHT22;3433;48.730;9.108;2022-09-09T15:29:43;24.00;78.20
6792;DHT22;3433;48.730;9.108;2022-09-09T15:32:31;24.20;77.70
6792;DHT22;3433;48.730;9.108;2022-09-09T15:35:20;24.40;78.20
6792;DHT22;3433;48.730;9.108;2022-09-09T15:38:07;24.10;76.00
6792;DHT22;3433;48.730;9.108;2022-09-09T15:40:54;23.80;76.10
6792;DHT22;3433;48.730;9.108;2022-09-09T15:43:44;23.50;77.40
6792;DHT22;3433;48.730;9.108;2022-09-09T15:46:33;23.30;77.30
6792;DHT22;3433;48.730;9.108;2022-09-09T15:49:24;23.10;77.70
6792;DHT22;3433;48.730;9.108;2022-09-09T15:52:13;22.80;76.60
6792;DHT22;3433;48.730;9.108;2022-09-09T15:55:01;22.70;76.50
6792;DHT22;3433;48.730;9.108;2022-09-09T15:57:48;22.60;76.60
6792;DHT22;3433;48.730;9.108;2022-09-09T16:00:35;22.40;76.60
6792;DHT22;3433;48.730;9.108;2022-09-09T16:03:23;22.30;77.90
6792;DHT22;3433;48.730;9.108;2022-09-09T16:06:10;22.20;77.80
6792;DHT22;3433;48.730;9.108;2022-09-09T16:09:00;22.20;78.40
6792;DHT22;3433;48.730;9.108;2022-09-09T16:11:50;22.00;78.10
6792;DHT22;3433;48.730;9.108;2022-09-09T16:14:39;22.10;78.80
6792;DHT22;3433;48.730;9.108;2022-09-09T16:17:26;21.90;78.80
6792;DHT22;3433;48.730;9.108;2022-09-09T16:20:14;21.80;79.20
6792;DHT22;3433;48.730;9.108;2022-09-09T16:23:01;21.80;79.20
6792;DHT22;3433;48.730;9.108;2022-09-09T16:25:54;21.70;79.80
6792;DHT22;3433;48.730;9.108;2022-09-09T16:28:42;21.70;79.80
6792;DHT22;3433;48.730;9.108;2022-09-09T16:31:32;21.70;80.20
6792;DHT22;3433;48.730;9.108;2022-09-09T16:34:20;21.60;80.50
6792;DHT22;3433;48.730;9.108;2022-09-09T16:37:08;21.50;80.80
6792;DHT22;3433;48.730;9.108;2022-09-09T16:39:57;21.50;81.80
6792;DHT22;3433;48.730;9.108;2022-09-09T16:42:46;21.60;82.80
6792;DHT22;3433;48.730;9.108;2022-09-09T16:45:33;21.50;83.10
6792;DHT22;3433;48.730;9.108;2022-09-09T16:48:21;21.50;82.90
6792;DHT22;3433;48.730;9.108;2022-09-09T16:51:12;21.40;83.80
6792;DHT22;3433;48.730;9.108;2022-09-09T16:54:02;21.30;85.40
6792;DHT22;3433;48.730;9.108;2022-09-09T16:56:49;21.50;85.40
6792;DHT22;3433;48.730;9.108;2022-09-09T16:59:38;21.50;87.40
6792;DHT22;3433;48.730;9.108;2022-09-09T17:02:25;21.50;85.60
6792;DHT22;3433;48.730;9.108;2022-09-09T17:05:13;21.70;86.50
6792;DHT22;3433;48.730;9.108;2022-09-09T17:08:00;21.80;86.40
6792;DHT22;3433;48.730;9.108;2022-09-09T17:10:48;21.70;85.10
6792;DHT22;3433;48.730;9.108;2022-09-09T17:13:35;21.60;84.70
6792;DHT22;3433;48.730;9.108;2022-09-09T17:16:26;21.50;85.20
6792;DHT22;3433;48.730;9.108;2022-09-09T17:19:14;21.50;85.90
6792;DHT22;3433;48.730;9.108;2022-09-09T17:22:02;21.70;87.30
6792;DHT22;3433;48.730;9.108;2022-09-09T17:24:49;21.60;85.40
6792;DHT22;3433;48.730;9.108;2022-09-09T17:27:36;21.50;86.80
6792;DHT22;3433;48.730;9.108;2022-09-09T17:30:24;21.50;87.40
6792;DHT22;3433;48.730;9.108;2022-09-09T17:33:13;21.50;86.30
6792;DHT22;3433;48.730;9.108;2022-09-09T17:36:04;21.50;88.20
6792;DHT22;3433;48.730;9.108;2022-09-09T17:38:53;21.60;87.90
6792;DHT22;3433;48.730;9.108;2022-09-09T17:41:41;21.40;87.70
6792;DHT22;3433;48.730;9.108;2022-09-09T17:44:28;21.40;88.30
6792;DHT22;3433;48.730;9.108;2022-09-09T17:47:18;21.30;87.50
6792;DHT22;3433;48.730;9.108;2022-09-09T17:50:07;21.30;88.60
6792;DHT22;3433;48.730;9.108;2022-09-09T17:52:55;21.20;88.40
6792;DHT22;3433;48.730;9.108;2022-09-09T17:55:42;21.20;88.20
6792;DHT22;3433;48.730;9.108;2022-09-09T17:58:30;21.00;87.80
6792;DHT22;3433;48.730;9.108;2022-09-09T18:01:19;21.00;88.50
6792;DHT22;3433;48.730;9.108;2022-09-09T18:04:09;20.80;88.50
6792;DHT22;3433;48.730;9.108;2022-09-09T18:07:00;20.60;87.80
6792;DHT22;3433;48.730;9.108;2022-09-09T18:09:47;20.50;87.50
6792;DHT22;3433;48.730;9.108;2022-09-09T18:12:35;20.30;87.60
6792;DHT22;3433;48.730;9.108;2022-09-09T18:15:22;20.30;87.90
6792;DHT22;3433;48.730;9.108;2022-09-09T18:18:10;20.10;87.70
6792;DHT22;3433;48.730;9.108;2022-09-09T18:20:58;20.00;87.60
6792;DHT22;3433;48.730;9.108;2022-09-09T18:23:48;19.90;87.40
6792;DHT22;3433;48.730;9.108;2022-09-09T18:26:37;19.60;88.80
6792;DHT22;3433;48.730;9.108;2022-09-09T18:29:25;19.50;89.00
6792;DHT22;3433;48.730;9.108;2022-09-09T18:32:13;19.40;88.70
6792;DHT22;3433;48.730;9.108;2022-09-09T18:35:01;19.20;90.60
6792;DHT22;3433;48.730;9.108;2022-09-09T18:37:49;19.10;90.40
6792;DHT22;3433;48.730;9.108;2022-09-09T18:40:38;19.10;90.30
6792;DHT22;3433;48.730;9.108;2022-09-09T18:43:26;19.10;90.30